Flight Track Log - Related Links

Times and Time Zones

All times are in EDT time to prevent confusion due to time zone crossing. See the CCA4385 flight status page for this flight to view local times or setup timezone preferences in your user account.

Time Position Orientation Groundspeed Altitude Reporting Facility
EDT Latitude Longitude Course Direction KTS MPH feet Rate Location/Type
Sun 01:16:14 AM 29.6410 106.8640 177° South 343 395 18,500  Level FlightAware ADS-B
Sun 01:16:57 AM 29.5870 106.8670 177° South 355 409 18,700 1,143 Climbing FlightAware ADS-B
Sun 01:17:38 AM 29.5020 106.8720 177° South 358 412 20,100 903 Climbing FlightAware ADS-B
Sun 01:18:30 AM 29.4290 106.8770 177° South 358 412 20,100  Level FlightAware ADS-B
Sun 01:19:07 AM 29.3770 106.8800 177° South 358 412 20,100  Level FlightAware ADS-B
Sun 01:19:43 AM 29.3260 106.8830 177° South 358 412 20,100  Level FlightAware ADS-B
Sun 01:21:05 AM 29.2110 106.8900 177° South 358 412 20,100  Level FlightAware ADS-B
Sun 01:23:00 AM 28.9612 107.0956 144° Southeast  Level Estimated
Sun 01:24:00 AM 28.8307 107.2025 144° Southeast  Level Estimated
Sun 01:25:00 AM 28.7002 107.3092 144° Southeast  Level Estimated
Sun 01:26:00 AM 28.5695 107.4155 144° Southeast  Level Estimated
Sun 01:27:00 AM 28.4388 107.5216 144° Southeast  Level Estimated
Sun 01:28:00 AM 28.3080 107.6275 145° Southeast  Level Estimated
Sun 01:29:00 AM 28.1771 107.7330 145° Southeast  Level Estimated
Sun 01:30:00 AM 28.0462 107.8384 145° Southeast  Level Estimated
Sun 01:31:00 AM 27.9151 107.9434 145° Southeast  Level Estimated
Sun 01:32:00 AM 27.7840 108.0482 145° Southeast  Level Estimated
Sun 01:33:00 AM 27.6528 108.1528 145° Southeast  Level Estimated
Sun 01:34:00 AM 27.5215 108.2571 145° Southeast  Level Estimated
Sun 01:35:00 AM 27.3902 108.3611 145° Southeast  Level Estimated
Sun 01:36:00 AM 27.2587 108.4649 145° Southeast  Level Estimated
Sun 01:37:00 AM 27.1272 108.5685 145° Southeast  Level Estimated
Sun 01:38:00 AM 26.9956 108.6718 145° Southeast  Level Estimated
Sun 01:39:00 AM 26.8640 108.7749 145° Southeast  Level Estimated
Sun 01:40:00 AM 26.7323 108.8777 145° Southeast  Level Estimated
Sun 01:41:00 AM 26.6005 108.9803 145° Southeast  Level Estimated
Sun 01:42:00 AM 26.4686 109.0827 145° Southeast  Level Estimated
Sun 01:43:00 AM 26.3366 109.1848 145° Southeast  Level Estimated
Sun 01:44:00 AM 26.2046 109.2867 145° Southeast  Level Estimated
Sun 01:45:00 AM 26.0725 109.3884 145° Southeast  Level Estimated
Sun 01:46:00 AM 25.9403 109.4898 145° Southeast  Level Estimated
Sun 01:47:00 AM 25.8081 109.5910 145° Southeast  Level Estimated
Sun 01:48:00 AM 25.6758 109.6920 145° Southeast  Level Estimated
Sun 01:49:00 AM 25.5434 109.7928 146° Southeast  Level Estimated
Sun 01:50:00 AM 25.4109 109.8933 146° Southeast  Level Estimated
Sun 01:51:00 AM 25.2784 109.9936 146° Southeast  Level Estimated
Sun 01:52:00 AM 25.2181 110.0392 146° Southeast  Level Estimated
Sun 01:53:00 AM 25.2181 110.0392 214° Southwest  Level Estimated
Sun 01:54:00 AM 25.2181 110.0392 214° Southwest  Level Estimated
Sun 01:55:00 AM 25.2181 110.0392 214° Southwest  Level Estimated
Sun 01:56:00 AM 25.2181 110.0392 214° Southwest  Level Estimated
Sun 01:57:00 AM 25.2181 110.0392 214° Southwest  Level Estimated
Sun 01:58:00 AM 25.2181 110.0392 214° Southwest  Level Estimated
Sun 01:59:00 AM 25.2181 110.0392 214° Southwest  Level Estimated
Sun 02:00:00 AM 25.2181 110.0392 214° Southwest  Level Estimated
Sun 02:01:00 AM 25.2181 110.0392 214° Southwest  Level Estimated
Sun 02:02:00 AM 25.2181 110.0392 214° Southwest  Level Estimated
Sun 02:03:00 AM 25.2181 110.0392 214° Southwest  Level Estimated
Sun 02:04:00 AM 25.2181 110.0392 214° Southwest  Level Estimated
Sun 02:05:00 AM 25.2181 110.0392 214° Southwest  Level Estimated
Sun 02:06:00 AM 25.2181 110.0392 214° Southwest  Level Estimated

Login

Don't have an account? Register now (free) for customized features, flight alerts, and more!